sensor_id;sensor_type;location;lat;lon;timestamp;P1;durP1;ratioP1;P2;durP2;ratioP2
23228;SDS011;11783;50.350;6.576;2023-12-20T00:01:26;4.68;;;2.60;;
23228;SDS011;11783;50.350;6.576;2023-12-20T00:03:51;5.93;;;2.25;;
23228;SDS011;11783;50.350;6.576;2023-12-20T00:06:17;3.88;;;2.20;;
23228;SDS011;11783;50.350;6.576;2023-12-20T00:08:42;5.10;;;2.63;;
23228;SDS011;11783;50.350;6.576;2023-12-20T00:11:07;3.72;;;2.28;;
23228;SDS011;11783;50.350;6.576;2023-12-20T00:13:33;5.22;;;2.65;;
23228;SDS011;11783;50.350;6.576;2023-12-20T00:15:58;4.50;;;2.20;;
23228;SDS011;11783;50.350;6.576;2023-12-20T00:18:23;5.18;;;2.30;;
23228;SDS011;11783;50.350;6.576;2023-12-20T00:20:49;3.15;;;1.90;;
23228;SDS011;11783;50.350;6.576;2023-12-20T00:23:14;3.33;;;2.08;;
23228;SDS011;11783;50.350;6.576;2023-12-20T00:25:40;5.00;;;2.10;;
23228;SDS011;11783;50.350;6.576;2023-12-20T00:28:05;4.22;;;2.35;;
23228;SDS011;11783;50.350;6.576;2023-12-20T00:30:31;3.35;;;1.77;;
23228;SDS011;11783;50.350;6.576;2023-12-20T00:32:56;3.35;;;2.00;;
23228;SDS011;11783;50.350;6.576;2023-12-20T00:35:22;3.38;;;1.60;;
23228;SDS011;11783;50.350;6.576;2023-12-20T00:37:47;3.70;;;1.98;;
23228;SDS011;11783;50.350;6.576;2023-12-20T00:40:12;4.00;;;2.10;;
23228;SDS011;11783;50.350;6.576;2023-12-20T00:42:38;3.92;;;2.20;;
23228;SDS011;11783;50.350;6.576;2023-12-20T00:45:04;3.80;;;2.00;;
23228;SDS011;11783;50.350;6.576;2023-12-20T00:47:30;4.38;;;2.40;;
23228;SDS011;11783;50.350;6.576;2023-12-20T00:49:56;4.28;;;2.40;;
23228;SDS011;11783;50.350;6.576;2023-12-20T00:52:22;4.03;;;2.05;;
23228;SDS011;11783;50.350;6.576;2023-12-20T00:54:47;3.33;;;2.10;;
23228;SDS011;11783;50.350;6.576;2023-12-20T00:57:13;4.65;;;2.40;;
23228;SDS011;11783;50.350;6.576;2023-12-20T00:59:38;4.80;;;2.67;;
23228;SDS011;11783;50.350;6.576;2023-12-20T01:02:04;5.65;;;2.50;;
23228;SDS011;11783;50.350;6.576;2023-12-20T01:04:29;4.40;;;2.55;;
23228;SDS011;11783;50.350;6.576;2023-12-20T01:06:54;5.47;;;3.08;;
23228;SDS011;11783;50.350;6.576;2023-12-20T01:09:20;5.97;;;2.85;;
23228;SDS011;11783;50.350;6.576;2023-12-20T01:11:48;6.40;;;3.08;;
23228;SDS011;11783;50.350;6.576;2023-12-20T01:14:14;5.03;;;3.15;;
23228;SDS011;11783;50.350;6.576;2023-12-20T01:16:39;5.32;;;3.08;;
23228;SDS011;11783;50.350;6.576;2023-12-20T01:19:05;6.85;;;3.00;;
23228;SDS011;11783;50.350;6.576;2023-12-20T01:21:30;5.30;;;3.03;;
23228;SDS011;11783;50.350;6.576;2023-12-20T01:23:56;5.57;;;3.20;;
23228;SDS011;11783;50.350;6.576;2023-12-20T01:26:21;5.63;;;3.00;;
23228;SDS011;11783;50.350;6.576;2023-12-20T01:28:46;4.63;;;2.90;;
23228;SDS011;11783;50.350;6.576;2023-12-20T01:31:12;5.25;;;2.70;;
23228;SDS011;11783;50.350;6.576;2023-12-20T01:33:37;4.10;;;2.17;;
23228;SDS011;11783;50.350;6.576;2023-12-20T01:36:03;4.90;;;2.58;;
23228;SDS011;11783;50.350;6.576;2023-12-20T01:38:29;4.50;;;2.50;;
23228;SDS011;11783;50.350;6.576;2023-12-20T01:40:54;3.90;;;2.30;;
23228;SDS011;11783;50.350;6.576;2023-12-20T01:43:20;5.63;;;3.40;;
23228;SDS011;11783;50.350;6.576;2023-12-20T01:45:46;7.45;;;3.83;;
23228;SDS011;11783;50.350;6.576;2023-12-20T01:48:12;9.55;;;5.25;;
23228;SDS011;11783;50.350;6.576;2023-12-20T01:50:38;9.88;;;5.45;;
23228;SDS011;11783;50.350;6.576;2023-12-20T01:53:05;15.00;;;7.40;;
23228;SDS011;11783;50.350;6.576;2023-12-20T01:55:34;20.15;;;9.10;;
23228;SDS011;11783;50.350;6.576;2023-12-20T01:58:02;18.65;;;8.10;;
23228;SDS011;11783;50.350;6.576;2023-12-20T02:00:28;17.85;;;7.50;;
23228;SDS011;11783;50.350;6.576;2023-12-20T02:02:55;16.35;;;6.90;;
23228;SDS011;11783;50.350;6.576;2023-12-20T02:05:21;13.70;;;6.07;;
23228;SDS011;11783;50.350;6.576;2023-12-20T02:07:47;10.63;;;5.25;;
23228;SDS011;11783;50.350;6.576;2023-12-20T02:10:13;19.33;;;5.38;;
23228;SDS011;11783;50.350;6.576;2023-12-20T02:12:39;17.33;;;4.85;;
23228;SDS011;11783;50.350;6.576;2023-12-20T02:15:05;15.63;;;4.78;;
23228;SDS011;11783;50.350;6.576;2023-12-20T02:17:31;13.52;;;5.18;;
23228;SDS011;11783;50.350;6.576;2023-12-20T02:19:57;15.48;;;4.25;;
23228;SDS011;11783;50.350;6.576;2023-12-20T02:22:23;11.05;;;3.63;;
23228;SDS011;11783;50.350;6.576;2023-12-20T02:24:48;10.93;;;3.72;;
23228;SDS011;11783;50.350;6.576;2023-12-20T02:27:13;10.35;;;3.38;;
23228;SDS011;11783;50.350;6.576;2023-12-20T02:29:43;14.50;;;3.80;;
23228;SDS011;11783;50.350;6.576;2023-12-20T02:32:08;16.00;;;3.47;;
23228;SDS011;11783;50.350;6.576;2023-12-20T02:34:33;12.00;;;3.40;;
23228;SDS011;11783;50.350;6.576;2023-12-20T02:36:59;9.85;;;3.17;;
23228;SDS011;11783;50.350;6.576;2023-12-20T02:39:24;16.65;;;4.00;;
23228;SDS011;11783;50.350;6.576;2023-12-20T02:41:50;13.75;;;3.42;;
23228;SDS011;11783;50.350;6.576;2023-12-20T02:44:15;10.52;;;3.30;;
23228;SDS011;11783;50.350;6.576;2023-12-20T02:46:41;9.52;;;2.95;;
23228;SDS011;11783;50.350;6.576;2023-12-20T02:49:07;9.95;;;2.92;;
23228;SDS011;11783;50.350;6.576;2023-12-20T02:51:32;10.23;;;3.28;;
23228;SDS011;11783;50.350;6.576;2023-12-20T02:53:58;7.75;;;2.60;;
23228;SDS011;11783;50.350;6.576;2023-12-20T02:56:23;9.15;;;2.88;;
23228;SDS011;11783;50.350;6.576;2023-12-20T02:58:48;12.18;;;3.65;;
23228;SDS011;11783;50.350;6.576;2023-12-20T03:01:14;9.05;;;3.10;;
23228;SDS011;11783;50.350;6.576;2023-12-20T03:03:39;9.20;;;2.92;;
23228;SDS011;11783;50.350;6.576;2023-12-20T03:06:05;7.65;;;2.88;;
23228;SDS011;11783;50.350;6.576;2023-12-20T03:08:30;10.05;;;3.78;;
23228;SDS011;11783;50.350;6.576;2023-12-20T03:10:56;6.25;;;2.75;;
23228;SDS011;11783;50.350;6.576;2023-12-20T03:13:21;8.15;;;2.70;;
23228;SDS011;11783;50.350;6.576;2023-12-20T03:15:47;11.73;;;3.10;;
23228;SDS011;11783;50.350;6.576;2023-12-20T03:18:12;9.30;;;3.00;;
23228;SDS011;11783;50.350;6.576;2023-12-20T03:20:38;8.65;;;2.80;;
23228;SDS011;11783;50.350;6.576;2023-12-20T03:23:03;10.38;;;3.17;;
23228;SDS011;11783;50.350;6.576;2023-12-20T03:25:29;7.28;;;2.60;;
23228;SDS011;11783;50.350;6.576;2023-12-20T03:27:54;8.60;;;3.53;;
23228;SDS011;11783;50.350;6.576;2023-12-20T03:30:20;12.77;;;3.53;;
23228;SDS011;11783;50.350;6.576;2023-12-20T03:32:46;16.92;;;3.50;;
23228;SDS011;11783;50.350;6.576;2023-12-20T03:35:12;12.85;;;2.92;;
23228;SDS011;11783;50.350;6.576;2023-12-20T03:37:37;9.68;;;3.40;;
23228;SDS011;11783;50.350;6.576;2023-12-20T03:40:03;15.38;;;3.47;;
23228;SDS011;11783;50.350;6.576;2023-12-20T03:42:29;12.38;;;3.58;;
23228;SDS011;11783;50.350;6.576;2023-12-20T03:44:54;12.18;;;3.50;;
23228;SDS011;11783;50.350;6.576;2023-12-20T03:47:20;15.15;;;3.63;;
23228;SDS011;11783;50.350;6.576;2023-12-20T03:49:45;8.98;;;3.22;;
23228;SDS011;11783;50.350;6.576;2023-12-20T03:52:11;11.38;;;3.45;;
23228;SDS011;11783;50.350;6.576;2023-12-20T03:54:37;12.13;;;3.65;;
23228;SDS011;11783;50.350;6.576;2023-12-20T03:57:02;10.60;;;3.33;;
23228;SDS011;11783;50.350;6.576;2023-12-20T03:59:28;12.38;;;3.60;;
23228;SDS011;11783;50.350;6.576;2023-12-20T04:01:54;11.73;;;3.25;;
23228;SDS011;11783;50.350;6.576;2023-12-20T04:04:19;10.00;;;3.60;;
23228;SDS011;11783;50.350;6.576;2023-12-20T04:06:44;10.85;;;4.15;;
23228;SDS011;11783;50.350;6.576;2023-12-20T04:09:10;17.85;;;4.32;;
23228;SDS011;11783;50.350;6.576;2023-12-20T04:11:38;11.40;;;3.80;;
23228;SDS011;11783;50.350;6.576;2023-12-20T04:14:04;11.95;;;4.20;;
23228;SDS011;11783;50.350;6.576;2023-12-20T04:16:30;11.98;;;3.50;;
23228;SDS011;11783;50.350;6.576;2023-12-20T04:18:55;9.18;;;3.63;;
23228;SDS011;11783;50.350;6.576;2023-12-20T04:21:21;10.90;;;3.88;;
23228;SDS011;11783;50.350;6.576;2023-12-20T04:23:46;13.30;;;4.10;;
23228;SDS011;11783;50.350;6.576;2023-12-20T04:26:12;11.52;;;3.67;;
23228;SDS011;11783;50.350;6.576;2023-12-20T04:28:37;8.38;;;3.97;;
23228;SDS011;11783;50.350;6.576;2023-12-20T04:31:03;13.00;;;4.00;;
23228;SDS011;11783;50.350;6.576;2023-12-20T04:33:28;12.30;;;4.55;;
23228;SDS011;11783;50.350;6.576;2023-12-20T04:35:54;13.57;;;4.32;;
23228;SDS011;11783;50.350;6.576;2023-12-20T04:38:19;10.93;;;3.55;;
23228;SDS011;11783;50.350;6.576;2023-12-20T04:40:45;9.60;;;3.55;;
23228;SDS011;11783;50.350;6.576;2023-12-20T04:43:10;11.45;;;3.53;;
23228;SDS011;11783;50.350;6.576;2023-12-20T04:45:35;17.85;;;4.10;;
23228;SDS011;11783;50.350;6.576;2023-12-20T04:48:01;15.85;;;4.60;;
23228;SDS011;11783;50.350;6.576;2023-12-20T04:50:27;16.30;;;4.00;;
23228;SDS011;11783;50.350;6.576;2023-12-20T04:52:53;11.07;;;3.53;;
23228;SDS011;11783;50.350;6.576;2023-12-20T04:55:18;11.25;;;3.90;;
23228;SDS011;11783;50.350;6.576;2023-12-20T04:57:44;17.80;;;4.05;;
23228;SDS011;11783;50.350;6.576;2023-12-20T05:00:09;10.75;;;3.63;;
23228;SDS011;11783;50.350;6.576;2023-12-20T05:02:36;16.30;;;4.55;;
23228;SDS011;11783;50.350;6.576;2023-12-20T05:05:01;13.77;;;4.07;;
23228;SDS011;11783;50.350;6.576;2023-12-20T05:07:27;13.80;;;3.90;;
23228;SDS011;11783;50.350;6.576;2023-12-20T05:09:52;12.48;;;3.35;;
23228;SDS011;11783;50.350;6.576;2023-12-20T05:12:18;17.63;;;3.97;;
23228;SDS011;11783;50.350;6.576;2023-12-20T05:14:44;14.98;;;3.35;;
23228;SDS011;11783;50.350;6.576;2023-12-20T05:17:09;11.98;;;3.15;;
23228;SDS011;11783;50.350;6.576;2023-12-20T05:19:34;15.07;;;3.55;;
23228;SDS011;11783;50.350;6.576;2023-12-20T05:22:01;15.38;;;3.72;;
23228;SDS011;11783;50.350;6.576;2023-12-20T05:24:27;18.25;;;3.80;;
23228;SDS011;11783;50.350;6.576;2023-12-20T05:26:52;11.65;;;3.53;;
23228;SDS011;11783;50.350;6.576;2023-12-20T05:29:18;18.35;;;4.32;;
23228;SDS011;11783;50.350;6.576;2023-12-20T05:31:43;18.60;;;4.10;;
23228;SDS011;11783;50.350;6.576;2023-12-20T05:34:09;16.55;;;4.47;;
23228;SDS011;11783;50.350;6.576;2023-12-20T05:36:34;22.73;;;4.30;;
23228;SDS011;11783;50.350;6.576;2023-12-20T05:39:01;13.98;;;4.00;;
23228;SDS011;11783;50.350;6.576;2023-12-20T05:41:28;13.65;;;4.03;;
23228;SDS011;11783;50.350;6.576;2023-12-20T05:43:54;13.52;;;3.63;;
23228;SDS011;11783;50.350;6.576;2023-12-20T05:46:19;13.13;;;4.18;;
23228;SDS011;11783;50.350;6.576;2023-12-20T05:48:46;14.27;;;3.63;;
23228;SDS011;11783;50.350;6.576;2023-12-20T05:51:12;14.15;;;4.18;;
23228;SDS011;11783;50.350;6.576;2023-12-20T05:53:38;18.00;;;4.05;;
23228;SDS011;11783;50.350;6.576;2023-12-20T05:56:03;14.68;;;4.07;;
23228;SDS011;11783;50.350;6.576;2023-12-20T05:58:29;18.60;;;4.10;;
23228;SDS011;11783;50.350;6.576;2023-12-20T06:00:55;16.95;;;4.28;;
23228;SDS011;11783;50.350;6.576;2023-12-20T06:03:20;17.00;;;3.85;;
23228;SDS011;11783;50.350;6.576;2023-12-20T06:05:45;15.30;;;3.88;;
23228;SDS011;11783;50.350;6.576;2023-12-20T06:08:11;15.25;;;4.03;;
23228;SDS011;11783;50.350;6.576;2023-12-20T06:10:36;16.10;;;4.65;;
23228;SDS011;11783;50.350;6.576;2023-12-20T06:13:02;16.25;;;4.55;;
23228;SDS011;11783;50.350;6.576;2023-12-20T06:15:29;22.70;;;5.45;;
23228;SDS011;11783;50.350;6.576;2023-12-20T06:17:54;15.80;;;4.72;;
23228;SDS011;11783;50.350;6.576;2023-12-20T06:20:20;16.70;;;4.85;;
23228;SDS011;11783;50.350;6.576;2023-12-20T06:22:46;18.77;;;5.22;;
23228;SDS011;11783;50.350;6.576;2023-12-20T06:25:11;16.25;;;4.90;;
23228;SDS011;11783;50.350;6.576;2023-12-20T06:27:37;18.23;;;5.65;;
23228;SDS011;11783;50.350;6.576;2023-12-20T06:30:02;16.58;;;5.88;;
23228;SDS011;11783;50.350;6.576;2023-12-20T06:32:28;20.65;;;5.40;;
23228;SDS011;11783;50.350;6.576;2023-12-20T06:34:54;16.35;;;5.63;;
23228;SDS011;11783;50.350;6.576;2023-12-20T06:37:20;24.52;;;6.68;;
23228;SDS011;11783;50.350;6.576;2023-12-20T06:39:45;17.30;;;5.30;;
23228;SDS011;11783;50.350;6.576;2023-12-20T06:42:11;22.85;;;6.30;;
23228;SDS011;11783;50.350;6.576;2023-12-20T06:44:37;19.98;;;6.00;;
23228;SDS011;11783;50.350;6.576;2023-12-20T06:47:04;16.23;;;6.03;;
23228;SDS011;11783;50.350;6.576;2023-12-20T06:49:29;13.77;;;5.70;;
23228;SDS011;11783;50.350;6.576;2023-12-20T06:51:55;19.40;;;6.40;;
23228;SDS011;11783;50.350;6.576;2023-12-20T06:54:20;16.83;;;5.97;;
23228;SDS011;11783;50.350;6.576;2023-12-20T06:56:46;23.35;;;6.63;;
23228;SDS011;11783;50.350;6.576;2023-12-20T06:59:11;16.92;;;5.88;;
23228;SDS011;11783;50.350;6.576;2023-12-20T07:01:37;18.33;;;6.50;;
23228;SDS011;11783;50.350;6.576;2023-12-20T07:04:03;20.30;;;4.93;;
23228;SDS011;11783;50.350;6.576;2023-12-20T07:06:28;21.67;;;5.20;;
23228;SDS011;11783;50.350;6.576;2023-12-20T07:08:54;20.65;;;5.25;;
23228;SDS011;11783;50.350;6.576;2023-12-20T07:11:19;16.80;;;5.05;;
23228;SDS011;11783;50.350;6.576;2023-12-20T07:13:45;21.27;;;5.75;;
23228;SDS011;11783;50.350;6.576;2023-12-20T07:16:10;14.48;;;5.28;;
23228;SDS011;11783;50.350;6.576;2023-12-20T07:18:36;14.68;;;5.40;;
23228;SDS011;11783;50.350;6.576;2023-12-20T07:21:01;17.27;;;5.53;;
23228;SDS011;11783;50.350;6.576;2023-12-20T07:23:27;20.45;;;5.75;;
23228;SDS011;11783;50.350;6.576;2023-12-20T07:25:52;14.60;;;5.75;;
23228;SDS011;11783;50.350;6.576;2023-12-20T07:28:18;18.73;;;5.72;;
23228;SDS011;11783;50.350;6.576;2023-12-20T07:30:43;19.15;;;5.88;;
23228;SDS011;11783;50.350;6.576;2023-12-20T07:33:09;17.40;;;6.00;;
23228;SDS011;11783;50.350;6.576;2023-12-20T07:35:34;21.88;;;5.28;;
23228;SDS011;11783;50.350;6.576;2023-12-20T07:38:00;23.95;;;5.78;;
23228;SDS011;11783;50.350;6.576;2023-12-20T07:40:25;16.33;;;4.38;;
23228;SDS011;11783;50.350;6.576;2023-12-20T07:42:51;14.73;;;4.97;;
23228;SDS011;11783;50.350;6.576;2023-12-20T07:45:16;19.30;;;4.95;;
23228;SDS011;11783;50.350;6.576;2023-12-20T07:47:42;14.63;;;6.30;;
23228;SDS011;11783;50.350;6.576;2023-12-20T07:50:07;16.15;;;4.85;;
23228;SDS011;11783;50.350;6.576;2023-12-20T07:52:33;14.20;;;5.00;;
23228;SDS011;11783;50.350;6.576;2023-12-20T07:54:58;18.42;;;5.18;;
23228;SDS011;11783;50.350;6.576;2023-12-20T07:57:23;17.33;;;5.30;;
23228;SDS011;11783;50.350;6.576;2023-12-20T07:59:49;17.13;;;5.50;;
23228;SDS011;11783;50.350;6.576;2023-12-20T08:02:14;15.55;;;5.00;;
23228;SDS011;11783;50.350;6.576;2023-12-20T08:04:40;18.65;;;4.82;;
23228;SDS011;11783;50.350;6.576;2023-12-20T08:07:06;13.55;;;4.20;;
23228;SDS011;11783;50.350;6.576;2023-12-20T08:09:32;17.60;;;4.65;;
23228;SDS011;11783;50.350;6.576;2023-12-20T08:11:58;17.45;;;6.00;;
23228;SDS011;11783;50.350;6.576;2023-12-20T08:14:25;18.42;;;5.05;;
23228;SDS011;11783;50.350;6.576;2023-12-20T08:16:50;16.45;;;5.65;;
23228;SDS011;11783;50.350;6.576;2023-12-20T08:19:16;18.15;;;5.38;;
23228;SDS011;11783;50.350;6.576;2023-12-20T08:21:42;16.30;;;4.95;;
23228;SDS011;11783;50.350;6.576;2023-12-20T08:24:07;17.33;;;4.40;;
23228;SDS011;11783;50.350;6.576;2023-12-20T08:26:33;16.13;;;4.38;;
23228;SDS011;11783;50.350;6.576;2023-12-20T08:28:59;15.40;;;4.80;;
23228;SDS011;11783;50.350;6.576;2023-12-20T08:31:24;16.15;;;4.75;;
23228;SDS011;11783;50.350;6.576;2023-12-20T08:33:51;14.75;;;4.60;;
23228;SDS011;11783;50.350;6.576;2023-12-20T08:36:18;22.42;;;7.20;;
23228;SDS011;11783;50.350;6.576;2023-12-20T08:38:44;17.45;;;5.47;;
23228;SDS011;11783;50.350;6.576;2023-12-20T08:41:10;15.90;;;5.63;;
23228;SDS011;11783;50.350;6.576;2023-12-20T08:43:35;21.05;;;4.65;;
23228;SDS011;11783;50.350;6.576;2023-12-20T08:46:01;21.65;;;5.00;;
23228;SDS011;11783;50.350;6.576;2023-12-20T08:48:27;17.60;;;4.55;;
23228;SDS011;11783;50.350;6.576;2023-12-20T08:50:53;11.77;;;4.32;;
23228;SDS011;11783;50.350;6.576;2023-12-20T08:53:19;16.00;;;5.03;;
23228;SDS011;11783;50.350;6.576;2023-12-20T08:55:44;12.23;;;4.45;;
23228;SDS011;11783;50.350;6.576;2023-12-20T08:58:10;17.45;;;5.88;;
23228;SDS011;11783;50.350;6.576;2023-12-20T09:00:36;12.20;;;4.93;;
23228;SDS011;11783;50.350;6.576;2023-12-20T09:03:02;14.20;;;4.43;;
23228;SDS011;11783;50.350;6.576;2023-12-20T09:05:27;11.43;;;4.90;;
23228;SDS011;11783;50.350;6.576;2023-12-20T09:07:53;20.80;;;5.55;;
23228;SDS011;11783;50.350;6.576;2023-12-20T09:10:19;13.70;;;4.65;;
23228;SDS011;11783;50.350;6.576;2023-12-20T09:12:50;13.52;;;5.10;;
23228;SDS011;11783;50.350;6.576;2023-12-20T09:15:21;20.55;;;4.80;;
23228;SDS011;11783;50.350;6.576;2023-12-20T09:17:47;14.50;;;4.78;;
23228;SDS011;11783;50.350;6.576;2023-12-20T09:20:12;13.45;;;3.92;;
23228;SDS011;11783;50.350;6.576;2023-12-20T09:22:38;16.58;;;4.63;;
23228;SDS011;11783;50.350;6.576;2023-12-20T09:25:05;12.52;;;5.70;;
23228;SDS011;11783;50.350;6.576;2023-12-20T09:27:30;13.95;;;4.20;;
23228;SDS011;11783;50.350;6.576;2023-12-20T09:29:56;20.92;;;4.30;;
23228;SDS011;11783;50.350;6.576;2023-12-20T09:32:21;13.23;;;3.97;;
23228;SDS011;11783;50.350;6.576;2023-12-20T09:34:47;15.95;;;4.60;;
23228;SDS011;11783;50.350;6.576;2023-12-20T09:37:13;13.68;;;4.55;;
23228;SDS011;11783;50.350;6.576;2023-12-20T09:39:38;12.52;;;4.10;;
23228;SDS011;11783;50.350;6.576;2023-12-20T09:42:04;14.98;;;4.60;;
23228;SDS011;11783;50.350;6.576;2023-12-20T09:44:30;13.82;;;3.97;;
23228;SDS011;11783;50.350;6.576;2023-12-20T09:46:57;15.32;;;4.22;;
23228;SDS011;11783;50.350;6.576;2023-12-20T09:49:22;16.05;;;4.70;;
23228;SDS011;11783;50.350;6.576;2023-12-20T09:51:50;12.77;;;3.83;;
23228;SDS011;11783;50.350;6.576;2023-12-20T09:54:16;13.70;;;4.05;;
23228;SDS011;11783;50.350;6.576;2023-12-20T09:56:43;13.75;;;4.47;;
23228;SDS011;11783;50.350;6.576;2023-12-20T09:59:09;11.07;;;3.58;;
23228;SDS011;11783;50.350;6.576;2023-12-20T10:01:35;11.60;;;4.95;;
23228;SDS011;11783;50.350;6.576;2023-12-20T10:04:01;20.77;;;4.28;;
23228;SDS011;11783;50.350;6.576;2023-12-20T10:06:34;11.77;;;3.90;;
23228;SDS011;11783;50.350;6.576;2023-12-20T10:09:02;19.27;;;4.13;;
23228;SDS011;11783;50.350;6.576;2023-12-20T10:11:29;14.95;;;3.90;;
23228;SDS011;11783;50.350;6.576;2023-12-20T10:13:58;13.95;;;4.40;;
23228;SDS011;11783;50.350;6.576;2023-12-20T10:16:28;15.30;;;4.03;;
23228;SDS011;11783;50.350;6.576;2023-12-20T10:18:54;13.38;;;4.20;;
23228;SDS011;11783;50.350;6.576;2023-12-20T10:21:20;14.13;;;4.13;;
23228;SDS011;11783;50.350;6.576;2023-12-20T10:23:47;13.55;;;4.70;;
23228;SDS011;11783;50.350;6.576;2023-12-20T10:26:21;13.50;;;4.50;;
23228;SDS011;11783;50.350;6.576;2023-12-20T10:28:54;13.45;;;4.82;;
23228;SDS011;11783;50.350;6.576;2023-12-20T10:31:32;21.08;;;4.95;;
23228;SDS011;11783;50.350;6.576;2023-12-20T10:33:59;17.08;;;5.30;;
23228;SDS011;11783;50.350;6.576;2023-12-20T10:36:26;22.00;;;5.43;;
23228;SDS011;11783;50.350;6.576;2023-12-20T10:38:53;13.48;;;4.78;;
23228;SDS011;11783;50.350;6.576;2023-12-20T10:41:22;16.02;;;5.28;;
23228;SDS011;11783;50.350;6.576;2023-12-20T10:43:52;14.13;;;5.47;;
23228;SDS011;11783;50.350;6.576;2023-12-20T10:46:21;17.73;;;5.43;;
23228;SDS011;11783;50.350;6.576;2023-12-20T10:48:47;17.55;;;5.25;;
23228;SDS011;11783;50.350;6.576;2023-12-20T10:51:15;16.58;;;5.93;;
23228;SDS011;11783;50.350;6.576;2023-12-20T10:53:43;15.57;;;5.85;;
23228;SDS011;11783;50.350;6.576;2023-12-20T10:56:09;18.65;;;5.38;;
23228;SDS011;11783;50.350;6.576;2023-12-20T10:58:40;12.93;;;5.75;;
23228;SDS011;11783;50.350;6.576;2023-12-20T11:01:08;16.15;;;5.82;;
23228;SDS011;11783;50.350;6.576;2023-12-20T11:03:34;13.35;;;5.65;;
23228;SDS011;11783;50.350;6.576;2023-12-20T11:06:09;15.77;;;5.67;;
23228;SDS011;11783;50.350;6.576;2023-12-20T11:08:50;13.20;;;5.70;;
23228;SDS011;11783;50.350;6.576;2023-12-20T11:11:29;17.17;;;6.40;;
23228;SDS011;11783;50.350;6.576;2023-12-20T11:14:07;14.75;;;5.82;;
23228;SDS011;11783;50.350;6.576;2023-12-20T11:16:38;21.67;;;5.78;;
23228;SDS011;11783;50.350;6.576;2023-12-20T11:19:06;16.60;;;5.45;;
23228;SDS011;11783;50.350;6.576;2023-12-20T11:21:32;17.50;;;6.78;;
23228;SDS011;11783;50.350;6.576;2023-12-20T11:23:58;20.48;;;6.10;;
23228;SDS011;11783;50.350;6.576;2023-12-20T11:26:27;15.13;;;6.68;;
23228;SDS011;11783;50.350;6.576;2023-12-20T11:28:54;16.25;;;5.75;;
23228;SDS011;11783;50.350;6.576;2023-12-20T11:31:19;15.25;;;6.60;;
23228;SDS011;11783;50.350;6.576;2023-12-20T11:33:45;15.65;;;6.07;;
23228;SDS011;11783;50.350;6.576;2023-12-20T11:36:18;16.30;;;5.65;;
23228;SDS011;11783;50.350;6.576;2023-12-20T11:38:53;15.05;;;5.50;;
23228;SDS011;11783;50.350;6.576;2023-12-20T11:41:22;16.67;;;5.45;;
23228;SDS011;11783;50.350;6.576;2023-12-20T11:43:49;12.73;;;4.70;;
23228;SDS011;11783;50.350;6.576;2023-12-20T11:46:18;17.08;;;4.95;;
23228;SDS011;11783;50.350;6.576;2023-12-20T11:48:43;20.83;;;5.55;;
23228;SDS011;11783;50.350;6.576;2023-12-20T11:51:10;11.48;;;5.25;;
23228;SDS011;11783;50.350;6.576;2023-12-20T11:53:36;14.77;;;4.93;;
23228;SDS011;11783;50.350;6.576;2023-12-20T11:56:02;13.20;;;5.00;;
23228;SDS011;11783;50.350;6.576;2023-12-20T11:58:29;19.38;;;5.82;;
23228;SDS011;11783;50.350;6.576;2023-12-20T12:00:55;15.48;;;4.65;;
23228;SDS011;11783;50.350;6.576;2023-12-20T12:03:21;14.55;;;5.22;;
23228;SDS011;11783;50.350;6.576;2023-12-20T12:05:49;17.10;;;4.85;;
23228;SDS011;11783;50.350;6.576;2023-12-20T12:08:15;17.23;;;5.32;;
23228;SDS011;11783;50.350;6.576;2023-12-20T12:10:42;17.98;;;5.22;;
23228;SDS011;11783;50.350;6.576;2023-12-20T12:13:09;15.48;;;4.95;;
23228;SDS011;11783;50.350;6.576;2023-12-20T12:15:35;13.00;;;4.00;;
23228;SDS011;11783;50.350;6.576;2023-12-20T12:18:01;10.45;;;4.10;;
23228;SDS011;11783;50.350;6.576;2023-12-20T12:20:27;12.27;;;3.53;;
23228;SDS011;11783;50.350;6.576;2023-12-20T12:23:05;16.92;;;4.18;;
23228;SDS011;11783;50.350;6.576;2023-12-20T12:25:32;12.38;;;3.70;;
23228;SDS011;11783;50.350;6.576;2023-12-20T12:28:00;8.32;;;3.05;;
23228;SDS011;11783;50.350;6.576;2023-12-20T12:30:26;11.30;;;3.63;;
23228;SDS011;11783;50.350;6.576;2023-12-20T12:32:55;11.05;;;3.55;;
23228;SDS011;11783;50.350;6.576;2023-12-20T12:35:22;14.30;;;3.75;;
23228;SDS011;11783;50.350;6.576;2023-12-20T12:37:48;14.05;;;3.80;;
23228;SDS011;11783;50.350;6.576;2023-12-20T12:40:14;10.07;;;3.35;;
23228;SDS011;11783;50.350;6.576;2023-12-20T12:42:41;11.13;;;3.70;;
23228;SDS011;11783;50.350;6.576;2023-12-20T12:45:08;11.70;;;3.55;;
23228;SDS011;11783;50.350;6.576;2023-12-20T12:47:34;11.75;;;3.50;;
23228;SDS011;11783;50.350;6.576;2023-12-20T12:50:00;10.30;;;3.50;;
23228;SDS011;11783;50.350;6.576;2023-12-20T12:52:26;11.20;;;3.28;;
23228;SDS011;11783;50.350;6.576;2023-12-20T12:54:52;11.55;;;3.33;;
23228;SDS011;11783;50.350;6.576;2023-12-20T12:57:18;12.38;;;3.28;;
23228;SDS011;11783;50.350;6.576;2023-12-20T12:59:44;12.00;;;3.80;;
23228;SDS011;11783;50.350;6.576;2023-12-20T13:02:11;9.27;;;3.25;;
23228;SDS011;11783;50.350;6.576;2023-12-20T13:04:38;12.15;;;3.33;;
23228;SDS011;11783;50.350;6.576;2023-12-20T13:07:04;12.43;;;3.10;;
23228;SDS011;11783;50.350;6.576;2023-12-20T13:09:30;10.15;;;2.75;;
23228;SDS011;11783;50.350;6.576;2023-12-20T13:11:56;7.80;;;2.65;;
23228;SDS011;11783;50.350;6.576;2023-12-20T13:14:22;10.48;;;2.65;;
23228;SDS011;11783;50.350;6.576;2023-12-20T13:16:48;8.38;;;2.35;;
23228;SDS011;11783;50.350;6.576;2023-12-20T13:19:13;8.38;;;2.25;;
23228;SDS011;11783;50.350;6.576;2023-12-20T13:21:39;5.88;;;1.75;;
23228;SDS011;11783;50.350;6.576;2023-12-20T13:24:05;8.10;;;2.30;;
23228;SDS011;11783;50.350;6.576;2023-12-20T13:26:31;9.43;;;2.72;;
23228;SDS011;11783;50.350;6.576;2023-12-20T13:28:56;8.05;;;2.50;;
23228;SDS011;11783;50.350;6.576;2023-12-20T13:31:22;11.27;;;2.70;;
23228;SDS011;11783;50.350;6.576;2023-12-20T13:33:47;7.32;;;2.30;;
23228;SDS011;11783;50.350;6.576;2023-12-20T13:36:13;5.82;;;2.05;;
23228;SDS011;11783;50.350;6.576;2023-12-20T13:38:38;5.40;;;2.28;;
23228;SDS011;11783;50.350;6.576;2023-12-20T13:41:04;9.73;;;2.45;;
23228;SDS011;11783;50.350;6.576;2023-12-20T13:43:30;10.70;;;2.33;;
23228;SDS011;11783;50.350;6.576;2023-12-20T13:45:57;12.00;;;2.75;;
23228;SDS011;11783;50.350;6.576;2023-12-20T13:48:23;10.18;;;2.35;;
23228;SDS011;11783;50.350;6.576;2023-12-20T13:50:49;9.63;;;2.30;;
23228;SDS011;11783;50.350;6.576;2023-12-20T13:53:14;9.60;;;2.28;;
23228;SDS011;11783;50.350;6.576;2023-12-20T13:55:40;10.25;;;2.88;;
23228;SDS011;11783;50.350;6.576;2023-12-20T13:58:05;10.45;;;2.72;;
23228;SDS011;11783;50.350;6.576;2023-12-20T14:00:31;10.02;;;2.50;;
23228;SDS011;11783;50.350;6.576;2023-12-20T14:02:56;9.93;;;2.85;;
23228;SDS011;11783;50.350;6.576;2023-12-20T14:05:22;7.53;;;4.80;;
23228;SDS011;11783;50.350;6.576;2023-12-20T14:07:48;8.07;;;3.30;;
23228;SDS011;11783;50.350;6.576;2023-12-20T14:10:14;10.57;;;2.65;;
23228;SDS011;11783;50.350;6.576;2023-12-20T14:12:39;5.93;;;2.58;;
23228;SDS011;11783;50.350;6.576;2023-12-20T14:15:05;8.75;;;2.72;;
23228;SDS011;11783;50.350;6.576;2023-12-20T14:17:39;7.65;;;2.45;;
23228;SDS011;11783;50.350;6.576;2023-12-20T14:20:07;5.60;;;2.00;;
23228;SDS011;11783;50.350;6.576;2023-12-20T14:22:33;8.77;;;2.45;;
23228;SDS011;11783;50.350;6.576;2023-12-20T14:24:58;8.57;;;2.60;;
23228;SDS011;11783;50.350;6.576;2023-12-20T14:27:24;6.60;;;2.38;;
23228;SDS011;11783;50.350;6.576;2023-12-20T14:29:52;7.28;;;3.13;;
23228;SDS011;11783;50.350;6.576;2023-12-20T14:32:18;8.45;;;2.17;;